Time;durP1;ratioP1;P1;durP2;ratioP2;P2;SDS_P1;SDS_P2;PMS_P1;PMS_P2;Temp;Humidity;BMP_temperature;BMP_pressure;BME280_temperature;BME280_humidity;BME280_pressure;Samples;Min_cycle;Max_cycle;Signal;HPM_P1;HPM_P2
2024/02/13 00:06:14;;;;;;;7.00;5.20;;;;;;;5.16;100.00;98555.93;435242;1260;139632;-56
2024/02/13 00:16:23;;;;;;;5.80;5.10;;;;;;;5.11;100.00;98562.48;435319;1260;139783;-64
2024/02/13 00:26:29;;;;;;;5.70;4.60;;;;;;;5.05;100.00;98573.73;441022;1259;139756;-65
2024/02/13 00:36:35;;;;;;;5.30;4.70;;;;;;;5.02;100.00;98590.05;439526;1257;139603;-61
2024/02/13 00:46:41;;;;;;;6.50;5.50;;;;;;;5.01;100.00;98602.27;438657;1259;139518;-54
2024/02/13 00:56:47;;;;;;;5.50;4.50;;;;;;;4.97;100.00;98618.46;435450;1260;140331;-65
2024/02/13 01:06:53;;;;;;;6.40;4.70;;;;;;;4.91;100.00;98635.06;435278;1260;139261;-62
2024/02/13 01:17:00;;;;;;;6.60;5.10;;;;;;;4.84;100.00;98642.40;436107;1261;140070;-61
2024/02/13 01:27:07;;;;;;;6.70;4.70;;;;;;;4.72;100.00;98650.18;437359;1258;139317;-59
2024/02/13 01:37:13;;;;;;;7.60;5.60;;;;;;;4.64;100.00;98660.33;435073;1260;139619;-59
2024/02/13 01:47:21;;;;;;;10.20;5.90;;;;;;;4.56;100.00;98673.53;436433;1260;140008;-56
2024/02/13 01:57:29;;;;;;;6.70;5.70;;;;;;;4.48;100.00;98676.08;440527;1261;139559;-56
2024/02/13 02:07:37;;;;;;;10.60;5.60;;;;;;;4.35;100.00;98686.13;436493;1261;139787;-56
2024/02/13 02:17:51;;;;;;;8.80;5.80;;;;;;;4.26;100.00;98700.43;437213;1261;139977;-56
2024/02/13 02:27:58;;;;;;;8.90;5.50;;;;;;;4.24;100.00;98715.60;435138;1259;139936;-65
2024/02/13 02:38:05;;;;;;;7.60;6.10;;;;;;;4.19;100.00;98719.88;438068;1260;139430;-65
2024/02/13 02:48:14;;;;;;;11.90;6.80;;;;;;;4.07;100.00;98738.82;441962;1259;140171;-56
2024/02/13 02:58:23;;;;;;;7.90;5.50;;;;;;;4.03;100.00;98756.02;440805;1259;140025;-55
2024/02/13 03:08:31;;;;;;;8.30;6.20;;;;;;;3.95;100.00;98760.88;438609;1260;138851;-56
2024/02/13 03:18:39;;;;;;;11.30;6.50;;;;;;;3.62;100.00;98765.27;435391;1260;140028;-63
2024/02/13 03:28:46;;;;;;;11.20;6.80;;;;;;;3.39;100.00;98775.55;435111;1259;140321;-64
2024/02/13 03:38:53;;;;;;;9.30;7.30;;;;;;;3.19;100.00;98788.74;435442;1260;139651;-62
2024/02/13 03:48:59;;;;;;;11.00;9.00;;;;;;;2.90;100.00;98808.40;442896;1260;139282;-60
2024/02/13 03:59:05;;;;;;;10.40;8.40;;;;;;;2.67;100.00;98827.02;435367;1262;139672;-63
2024/02/13 04:09:11;;;;;;;12.60;9.40;;;;;;;2.79;100.00;98840.50;434987;1262;139553;-56
2024/02/13 04:19:18;;;;;;;14.20;9.60;;;;;;;3.02;100.00;98848.29;435376;1262;139600;-61
2024/02/13 04:29:24;;;;;;;15.00;10.30;;;;;;;3.19;100.00;98857.24;444148;1260;140140;-61
2024/02/13 04:39:30;;;;;;;15.20;11.10;;;;;;;3.30;100.00;98858.98;447892;1260;139613;-61
2024/02/13 04:49:36;;;;;;;15.70;11.40;;;;;;;3.36;100.00;98866.50;438597;1260;140211;-60
2024/02/13 04:59:48;;;;;;;14.40;11.80;;;;;;;3.29;100.00;98879.82;436389;1260;140796;-62
2024/02/13 05:09:58;;;;;;;16.60;12.60;;;;;;;3.22;100.00;98889.96;444861;1260;140324;-64
2024/02/13 05:20:11;;;;;;;13.40;11.60;;;;;;;3.30;100.00;98900.35;435235;1260;141801;-55
2024/02/13 05:30:18;;;;;;;18.40;12.20;;;;;;;3.38;100.00;98910.86;446176;1259;140227;-59
2024/02/13 05:40:24;;;;;;;18.40;14.00;;;;;;;3.45;100.00;98920.94;446437;1259;139947;-56
2024/02/13 05:50:31;;;;;;;13.30;11.60;;;;;;;3.52;100.00;98943.33;435348;1262;139793;-63
2024/02/13 06:00:37;;;;;;;14.70;12.00;;;;;;;3.57;100.00;98960.54;441325;1259;140116;-64
2024/02/13 06:10:44;;;;;;;16.30;12.40;;;;;;;3.66;100.00;98973.67;437817;1262;140251;-61
2024/02/13 06:20:50;;;;;;;20.60;13.50;;;;;;;3.72;100.00;98993.32;435542;1260;140936;-60
2024/02/13 06:30:57;;;;;;;19.70;13.50;;;;;;;3.76;100.00;99010.79;436339;1262;140468;-61
2024/02/13 06:41:05;;;;;;;15.90;12.20;;;;;;;3.87;100.00;99030.35;431594;1262;5087961;-63
2024/02/13 06:51:14;;;;;;;16.60;12.10;;;;;;;4.02;100.00;99050.15;435981;1262;140244;-66
2024/02/13 07:01:23;;;;;;;15.90;13.00;;;;;;;4.12;100.00;99066.16;442620;1260;139638;-63
2024/02/13 07:11:32;;;;;;;20.10;13.00;;;;;;;4.22;100.00;99087.70;435831;1260;139471;-61
2024/02/13 07:21:38;;;;;;;22.60;13.60;;;;;;;4.32;100.00;99098.68;435959;1262;140625;-63
2024/02/13 07:31:44;;;;;;;14.70;12.80;;;;;;;4.42;100.00;99111.76;436992;1262;139672;-67
2024/02/13 07:41:50;;;;;;;17.40;12.80;;;;;;;4.57;100.00;99120.56;437165;1262;140200;-70
2024/02/13 07:51:57;;;;;;;15.20;11.80;;;;;;;4.76;100.00;99129.38;439372;1262;140179;-67
2024/02/13 08:02:06;;;;;;;18.70;15.20;;;;;;;5.00;100.00;99142.33;440755;1262;140262;-66
2024/02/13 08:12:12;;;;;;;16.50;11.20;;;;;;;5.35;100.00;99159.04;438913;1260;140553;-65
2024/02/13 08:22:19;;;;;;;15.20;11.10;;;;;;;5.55;100.00;99167.93;435544;1262;140037;-68
2024/02/13 08:32:26;;;;;;;14.00;9.90;;;;;;;5.61;100.00;99175.45;436617;1262;139660;-64
2024/02/13 08:42:34;;;;;;;11.90;10.60;;;;;;;5.96;100.00;99175.11;438131;1262;140490;-65
2024/02/13 08:52:41;;;;;;;14.80;9.10;;;;;;;6.56;100.00;99186.77;442621;1262;139821;-70
2024/02/13 09:02:49;;;;;;;9.90;8.60;;;;;;;7.08;100.00;99195.21;440424;1263;140932;-70
2024/02/13 09:12:55;;;;;;;11.40;8.90;;;;;;;8.47;100.00;99203.56;446275;1262;139911;-58
2024/02/13 09:23:02;;;;;;;12.20;7.70;;;;;;;9.93;100.00;99216.33;449396;1262;139526;-60
2024/02/13 09:33:09;;;;;;;10.40;6.40;;;;;;;11.06;100.00;99222.94;443786;1261;140571;-59
2024/02/13 09:43:18;;;;;;;11.80;6.40;;;;;;;11.54;100.00;99231.38;436625;1263;139986;-67
2024/02/13 09:53:27;;;;;;;5.70;5.20;;;;;;;11.37;100.00;99246.45;436835;1262;140236;-76
2024/02/13 10:03:33;;;;;;;10.30;5.10;;;;;;;10.01;100.00;99269.08;448999;1257;139727;-59
2024/02/13 10:13:40;;;;;;;9.50;5.20;;;;;;;8.76;100.00;99292.59;438586;1261;141117;-58
2024/02/13 10:23:54;;;;;;;9.20;5.70;;;;;;;7.77;100.00;99303.22;436950;1257;140807;-58
2024/02/13 10:34:03;;;;;;;7.10;4.30;;;;;;;7.37;100.00;99309.11;444771;1261;139782;-60
2024/02/13 10:44:11;;;;;;;6.90;5.20;;;;;;;7.42;100.00;99312.98;439394;1260;141635;-57
2024/02/13 10:54:18;;;;;;;6.70;5.00;;;;;;;7.18;100.00;99328.23;445470;1260;139829;-58
2024/02/13 11:04:26;;;;;;;5.20;3.40;;;;;;;6.85;100.00;99335.52;435401;1261;139882;-58
2024/02/13 11:14:33;;;;;;;6.20;3.30;;;;;;;6.93;100.00;99343.68;441473;1260;139822;-66
2024/02/13 11:24:51;;;;;;;4.20;2.80;;;;;;;6.89;100.00;99353.59;449480;1257;140874;-60
2024/02/13 11:34:59;;;;;;;4.90;3.70;;;;;;;6.79;100.00;99360.40;445390;1261;140401;-70
2024/02/13 11:45:08;;;;;;;4.20;3.60;;;;;;;6.91;100.00;99369.85;436799;1262;139319;-66
2024/02/13 11:55:14;;;;;;;5.20;3.50;;;;;;;7.07;100.00;99385.39;446512;1260;140009;-59
2024/02/13 12:05:24;;;;;;;6.90;4.00;;;;;;;7.31;100.00;99385.87;449416;1257;139360;-57
2024/02/13 12:15:31;;;;;;;7.20;3.90;;;;;;;7.63;100.00;99398.58;436814;1262;139409;-63
2024/02/13 12:25:37;;;;;;;4.80;3.50;;;;;;;7.46;100.00;99400.22;435338;1257;140339;-67
2024/02/13 12:35:46;;;;;;;7.80;5.00;;;;;;;7.03;100.00;99412.41;435985;1260;139707;-70
2024/02/13 12:45:55;;;;;;;6.10;3.90;;;;;;;6.69;100.00;99413.59;442140;1258;140207;-73
2024/02/13 12:56:02;;;;;;;5.70;3.50;;;;;;;6.81;100.00;99420.65;436529;1259;140081;-73
2024/02/13 13:06:10;;;;;;;6.70;4.20;;;;;;;6.74;100.00;99426.56;436537;1261;140070;-67
2024/02/13 13:16:18;;;;;;;7.40;4.00;;;;;;;6.74;100.00;99440.68;435806;1262;140392;-60
2024/02/13 13:26:32;;;;;;;6.20;5.50;;;;;;;6.78;100.00;99452.48;435652;1260;140018;-64
2024/02/13 13:36:41;;;;;;;6.40;3.30;;;;;;;6.79;100.00;99465.96;449577;1257;139766;-63
2024/02/13 13:46:47;;;;;;;5.80;4.10;;;;;;;6.82;100.00;99475.08;441525;1259;139609;-59
2024/02/13 13:56:57;;;;;;;6.50;3.60;;;;;;;6.73;100.00;99481.11;439814;1259;140060;-59
2024/02/13 14:07:05;;;;;;;2.60;2.20;;;;;;;6.60;100.00;99493.56;436043;1262;140052;-64
2024/02/13 14:17:11;;;;;;;3.30;2.00;;;;;;;6.36;99.84;99502.87;436999;1260;140365;-62
2024/02/13 14:27:18;;;;;;;5.50;2.60;;;;;;;6.20;99.71;99517.54;435492;1259;140624;-70
2024/02/13 14:37:25;;;;;;;5.20;2.80;;;;;;;6.05;99.63;99526.19;435667;1261;139231;-69
2024/02/13 14:47:31;;;;;;;4.00;3.30;;;;;;;5.97;99.47;99536.79;435552;1259;139802;-60
2024/02/13 14:57:40;;;;;;;8.50;3.50;;;;;;;5.88;99.44;99545.39;436460;1260;138783;-59
2024/02/13 15:08:03;;;;;;;5.50;3.40;;;;;;;5.73;99.25;99554.52;436411;1259;139241;-62
2024/02/13 15:18:10;;;;;;;5.40;3.20;;;;;;;5.55;99.01;99564.88;437350;1261;139103;-64
2024/02/13 15:28:17;;;;;;;5.10;3.50;;;;;;;5.39;99.27;99580.31;440272;1262;139165;-71
2024/02/13 15:48:46;;;;;;;8.80;5.40;;;;;;;5.19;99.95;99602.69;437759;1259;138816;-70
2024/02/13 15:58:53;;;;;;;7.70;4.70;;;;;;;5.08;100.00;99617.52;437483;1260;141102;-67
2024/02/13 16:08:59;;;;;;;7.50;4.30;;;;;;;4.94;100.00;99626.91;438244;1260;140572;-66
2024/02/13 16:19:06;;;;;;;9.70;5.00;;;;;;;4.82;100.00;99642.15;441681;1259;139697;-61
2024/02/13 16:29:14;;;;;;;9.20;4.70;;;;;;;4.73;100.00;99651.83;445863;1257;140190;-57
2024/02/13 16:39:22;;;;;;;6.00;4.10;;;;;;;4.69;100.00;99665.02;437197;1260;139137;-53
2024/02/13 16:49:28;;;;;;;8.50;5.70;;;;;;;4.61;100.00;99677.78;442170;1259;139631;-56
2024/02/13 16:59:34;;;;;;;17.20;8.30;;;;;;;4.50;100.00;99685.31;437910;1261;140083;-55
2024/02/13 17:09:40;;;;;;;12.20;7.20;;;;;;;4.42;100.00;99699.13;435458;1260;139415;-69
2024/02/13 17:19:47;;;;;;;15.20;8.70;;;;;;;4.34;100.00;99713.46;436853;1261;139491;-70
2024/02/13 17:29:53;;;;;;;11.20;6.20;;;;;;;4.26;100.00;99724.50;434677;1259;139729;-60
2024/02/13 17:40:00;;;;;;;18.50;7.00;;;;;;;4.23;100.00;99720.11;449305;1259;139120;-59
2024/02/13 17:50:08;;;;;;;5.50;4.80;;;;;;;4.22;100.00;99726.70;437423;1263;139835;-60
2024/02/13 18:00:21;;;;;;;13.40;5.80;;;;;;;4.15;100.00;99729.03;447306;1259;139387;-74
2024/02/13 18:10:27;;;;;;;13.20;6.80;;;;;;;4.12;100.00;99729.86;447938;1259;142381;-73
2024/02/13 18:20:34;;;;;;;8.80;5.90;;;;;;;4.07;100.00;99731.74;435802;1259;140077;-60
2024/02/13 18:30:40;;;;;;;8.30;5.40;;;;;;;4.01;100.00;99738.34;434943;1260;140147;-59
2024/02/13 18:40:48;;;;;;;9.50;6.00;;;;;;;3.94;100.00;99744.65;443647;1259;5099119;-59
2024/02/13 18:50:54;;;;;;;14.10;7.00;;;;;;;3.89;100.00;99750.02;435391;1262;141711;-59
2024/02/13 19:01:00;;;;;;;10.30;7.30;;;;;;;3.86;100.00;99759.65;435777;1260;140499;-54
2024/02/13 19:11:07;;;;;;;9.80;6.50;;;;;;;3.81;100.00;99766.39;435229;1262;139708;-55
2024/02/13 19:21:13;;;;;;;15.30;8.20;;;;;;;3.77;100.00;99776.20;436032;1262;139498;-70
2024/02/13 19:31:23;;;;;;;13.60;8.20;;;;;;;3.75;100.00;99785.11;449683;1257;140317;-56
2024/02/13 19:41:30;;;;;;;17.30;10.10;;;;;;;3.72;100.00;99795.06;438189;1262;139706;-58
2024/02/13 19:51:38;;;;;;;16.50;10.40;;;;;;;3.70;100.00;99806.58;436177;1262;140527;-57
2024/02/13 20:01:44;;;;;;;17.50;10.40;;;;;;;3.69;100.00;99812.13;435582;1261;141142;-59
2024/02/13 20:11:50;;;;;;;13.00;8.90;;;;;;;3.66;100.00;99814.31;436580;1262;142556;-64
2024/02/13 20:21:56;;;;;;;12.50;10.50;;;;;;;3.60;100.00;99817.80;435124;1259;139652;-63
2024/02/13 20:32:03;;;;;;;11.90;9.40;;;;;;;3.58;100.00;99830.84;436336;1262;139256;-64
2024/02/13 20:42:10;;;;;;;16.10;10.10;;;;;;;3.55;100.00;99832.15;438287;1260;140268;-61
2024/02/13 20:52:15;;;;;;;;;;;;;;;3.52;100.00;99833.81;440838;1259;140514;-59
2024/02/13 21:02:21;;;;;;;13.60;10.60;;;;;;;3.48;100.00;99839.96;434687;1260;127236;-69
2024/02/13 21:12:28;;;;;;;15.90;10.60;;;;;;;3.29;100.00;99848.16;435154;1260;139682;-60
2024/02/13 21:32:53;;;;;;;19.20;11.90;;;;;;;2.44;100.00;99860.35;434751;1260;140119;-56
2024/02/13 21:43:00;;;;;;;18.60;13.50;;;;;;;2.18;100.00;99866.38;435017;1258;140145;-54
2024/02/13 21:53:06;;;;;;;17.70;13.10;;;;;;;2.14;100.00;99868.02;436659;1260;139660;-56
2024/02/13 22:03:12;;;;;;;18.10;13.30;;;;;;;2.19;100.00;99870.15;434919;1258;141983;-56
2024/02/13 22:13:20;;;;;;;16.90;13.20;;;;;;;2.26;100.00;99876.88;440438;1261;140234;-61
2024/02/13 22:23:29;;;;;;;19.80;13.60;;;;;;;2.33;100.00;99886.73;440798;1260;139699;-55
2024/02/13 22:33:35;;;;;;;17.40;13.10;;;;;;;2.35;100.00;99889.62;435358;1259;139862;-56
2024/02/13 22:43:42;;;;;;;20.90;14.60;;;;;;;2.30;100.00;99890.08;434948;1262;140204;-57
2024/02/13 22:53:48;;;;;;;18.40;13.50;;;;;;;2.20;100.00;99905.68;435169;1260;140706;-68
2024/02/13 23:03:54;;;;;;;17.60;13.40;;;;;;;2.14;100.00;99914.30;435026;1260;139937;-56
2024/02/13 23:14:01;;;;;;;22.70;17.10;;;;;;;2.14;100.00;99914.31;436586;1260;140275;-56
2024/02/13 23:24:07;;;;;;;;;;;;;;;2.14;100.00;99920.19;435294;1260;141925;-57
2024/02/13 23:34:14;;;;;;;24.00;18.10;;;;;;;2.12;100.00;99922.13;437289;1262;127671;-57
2024/02/13 23:44:23;;;;;;;27.60;18.70;;;;;;;2.11;100.00;99921.28;436106;1260;139830;-69
2024/02/13 23:54:29;;;;;;;26.20;18.10;;;;;;;2.09;100.00;99927.89;434921;1260;139822;-69
